Terminal Aerodrome Forecast
Issued by NWS Cleveland, OH

Home | Current Version | Previous Version | Text Only | Print | Product List | Glossary Off
Versions: 1 2 3 4 5 6 7 8 9 10 11 12 13 14 15 16 17 18 19 20 21 22 23 24 25

000
FTUS41 KCLE 161300 AAB
TAFCLE
TAF AMD
KCLE 161329Z 1613/1718 35003KT 6SM BR BKN018 BKN045
      TEMPO 1613/1615 3SM -RA BR
     FM161500 35006KT P6SM BKN025
     FM161600 35006KT P6SM SCT045
     FM161800 35008KT P6SM SCT045
     FM162300 31004KT P6SM SKC
     FM170600 21004KT P6SM SCT250=

USA.gov is the U.S. government's official web portal to all federal, state and local government web resources and services.